createdAt,value
2022-10-28T08:37:43.420Z,101224.44
2022-10-28T08:39:46.023Z,101431.28
2022-10-28T08:41:58.647Z,101440.06
2022-10-28T08:44:20.893Z,101451.00
2022-10-28T08:46:49.744Z,101445.38
2022-10-28T08:48:51.979Z,101434.66
2022-10-28T08:51:00.766Z,101430.88
2022-10-28T08:53:27.059Z,101434.50
2022-10-28T08:55:35.124Z,101420.41
2022-10-28T08:57:51.086Z,101416.09
2022-10-28T08:59:54.072Z,101417.44
2022-10-28T09:02:22.075Z,101418.22
2022-10-28T09:04:44.114Z,101412.31
2022-10-28T09:06:46.587Z,101417.75
2022-10-28T09:08:50.083Z,101420.53
2022-10-28T09:11:06.938Z,101433.28
2022-10-28T09:13:17.848Z,101429.97
2022-10-28T09:15:47.595Z,101424.59
2022-10-28T09:18:43.986Z,101429.63
2022-10-28T09:20:54.050Z,101439.88
2022-10-28T09:22:58.726Z,101433.03
2022-10-28T09:25:17.701Z,101421.03
2022-10-28T09:27:49.868Z,101412.38
2022-10-28T09:30:07.547Z,101408.12
2022-10-28T09:32:36.754Z,101413.72
2022-10-28T09:34:51.186Z,101414.66
2022-10-28T09:36:58.582Z,101415.31
2022-10-28T09:39:03.488Z,101413.59
2022-10-28T09:41:16.257Z,101417.91
2022-10-28T09:43:48.870Z,101417.28
2022-10-28T09:45:53.686Z,101416.50
2022-10-28T09:48:14.528Z,101421.69
2022-10-28T09:50:20.935Z,101414.84
2022-10-28T09:52:28.532Z,101409.81
2022-10-28T09:54:35.960Z,101416.63
2022-10-28T09:56:39.194Z,101416.19
2022-10-28T09:58:46.746Z,101421.16
2022-10-28T10:00:49.692Z,101422.94
2022-10-28T10:02:57.683Z,101418.91
2022-10-28T10:05:02.698Z,101416.66
2022-10-28T10:07:12.281Z,101408.59
2022-10-28T10:09:21.717Z,101414.84
2022-10-28T10:11:44.964Z,101420.06
2022-10-28T10:13:47.673Z,101428.03
2022-10-28T10:15:57.083Z,101418.62
2022-10-28T10:18:02.292Z,101417.00
2022-10-28T10:20:13.391Z,101421.03
2022-10-28T10:22:34.058Z,101423.25
2022-10-28T10:24:36.336Z,101424.78
2022-10-28T10:26:38.559Z,101421.00
2022-10-28T10:28:46.689Z,101420.22
2022-10-28T10:30:54.750Z,101426.72
2022-10-28T10:32:57.964Z,101425.34
2022-10-28T10:35:23.075Z,101426.91
2022-10-28T10:37:25.467Z,101427.06
2022-10-28T10:39:35.392Z,101422.00
2022-10-28T10:41:41.809Z,101420.31
2022-10-28T10:43:44.018Z,101423.56
2022-10-28T10:46:00.825Z,101423.00
2022-10-28T10:48:12.110Z,101420.53
2022-10-28T10:50:28.343Z,101418.78
2022-10-28T10:52:30.516Z,101418.78
2022-10-28T10:54:36.090Z,101414.16
2022-10-28T10:56:38.507Z,101407.56
2022-10-28T10:58:49.816Z,101408.59
2022-10-28T11:00:56.217Z,101406.31
2022-10-28T11:02:59.903Z,101400.22
2022-10-28T11:05:06.190Z,101400.75
2022-10-28T11:07:15.722Z,101400.56
2022-10-28T11:09:23.327Z,101400.47
2022-10-28T11:11:39.935Z,101407.69
2022-10-28T11:13:45.963Z,101410.88
2022-10-28T11:16:00.776Z,101407.69
2022-10-28T11:18:17.049Z,101402.19
2022-10-28T11:20:53.598Z,101410.44
2022-10-28T11:23:01.912Z,101403.00
2022-10-28T11:25:44.093Z,101402.87
2022-10-28T11:28:23.423Z,101404.47
2022-10-28T11:31:10.334Z,101405.03
2022-10-28T11:33:35.161Z,101409.47
2022-10-28T11:35:40.650Z,101392.75
2022-10-28T11:38:11.061Z,101391.81
2022-10-28T11:40:27.604Z,101391.81
2022-10-28T11:42:38.802Z,101396.69
2022-10-28T11:44:59.647Z,101394.94
2022-10-28T11:47:20.928Z,101386.72
2022-10-28T11:50:01.802Z,101386.25
2022-10-28T11:52:13.394Z,101394.72
2022-10-28T11:54:18.197Z,101388.75
2022-10-28T11:56:39.570Z,101373.16
2022-10-28T11:58:53.461Z,101373.72
2022-10-28T12:01:14.652Z,101385.53
2022-10-28T12:03:32.406Z,101376.31
2022-10-28T12:05:59.238Z,101376.72
2022-10-28T12:08:09.831Z,101375.84
2022-10-28T12:10:21.710Z,101366.38
2022-10-28T12:12:37.264Z,101365.87
2022-10-28T12:14:47.582Z,101364.38
2022-10-28T12:17:21.442Z,101350.88
2022-10-28T12:19:38.462Z,101351.03
2022-10-28T12:21:46.173Z,101355.69
2022-10-28T12:23:49.575Z,101355.06
2022-10-28T12:25:57.334Z,101356.41
2022-10-28T12:28:04.557Z,101353.22
2022-10-28T12:30:13.244Z,101349.72
2022-10-28T12:32:22.691Z,101350.59
2022-10-28T12:34:34.030Z,101349.56
2022-10-28T12:36:45.769Z,101343.16
2022-10-28T12:39:06.650Z,101341.22
2022-10-28T12:41:11.627Z,101343.03
2022-10-28T12:43:24.225Z,101339.53
2022-10-28T12:45:28.689Z,101340.47
2022-10-28T12:47:43.384Z,101335.94
2022-10-28T12:50:08.079Z,101335.50
2022-10-28T12:52:22.201Z,101342.50
2022-10-28T12:54:53.542Z,101335.94
2022-10-28T12:57:20.046Z,101337.25
2022-10-28T12:59:35.312Z,101336.19
2022-10-28T13:01:38.096Z,101337.78
2022-10-28T13:03:41.128Z,101343.28
2022-10-28T13:06:09.180Z,101341.00
2022-10-28T13:08:39.107Z,101323.06
2022-10-28T13:10:52.605Z,101327.16
2022-10-28T13:13:15.068Z,101323.69
2022-10-28T13:15:25.834Z,101328.31
2022-10-28T13:17:28.177Z,101329.63
2022-10-28T13:19:36.227Z,101328.84
2022-10-28T13:22:02.767Z,101332.19
2022-10-28T13:24:16.515Z,101325.25
2022-10-28T13:26:32.751Z,101330.03
2022-10-28T13:28:42.203Z,101329.63
2022-10-28T13:31:05.993Z,101330.19
2022-10-28T13:33:16.485Z,101333.00
2022-10-28T13:35:25.392Z,101334.25
2022-10-28T13:37:36.668Z,101332.72
2022-10-28T13:39:41.635Z,101332.41
2022-10-28T13:41:47.893Z,101331.91
2022-10-28T13:43:58.355Z,101326.81
2022-10-28T13:46:00.576Z,101327.09
2022-10-28T13:48:40.630Z,101334.81
2022-10-28T13:50:43.067Z,101326.22
2022-10-28T13:55:27.272Z,101326.28
2022-10-28T13:57:36.765Z,101332.25
2022-10-28T13:59:49.924Z,101322.34
2022-10-28T14:02:07.818Z,101328.22
2022-10-28T14:04:26.399Z,101325.56
2022-10-28T14:06:32.955Z,101323.16
2022-10-28T14:08:40.163Z,101331.63
2022-10-28T14:11:03.908Z,101341.22
2022-10-28T14:13:21.326Z,101341.22
2022-10-28T14:15:27.002Z,101341.94
2022-10-28T14:17:39.682Z,101340.78
2022-10-28T14:19:49.557Z,101343.31
2022-10-28T14:22:02.140Z,101341.94
2022-10-28T14:24:29.464Z,101342.25
2022-10-28T14:26:31.713Z,101344.88
2022-10-28T14:28:33.861Z,101350.56
2022-10-28T14:30:37.381Z,101362.66
2022-10-28T14:32:44.846Z,101359.47
2022-10-28T14:34:48.169Z,101366.44
2022-10-28T14:37:12.586Z,101363.25
2022-10-28T14:39:35.561Z,101368.63
2022-10-28T14:42:01.077Z,101366.56
2022-10-28T14:44:23.032Z,101362.47
2022-10-28T14:46:50.368Z,101360.50
2022-10-28T14:48:55.406Z,101364.16
2022-10-28T14:51:00.260Z,101364.31
2022-10-28T14:53:07.645Z,101364.94
2022-10-28T14:55:22.517Z,101367.09
2022-10-28T14:57:34.046Z,101365.53
2022-10-28T14:59:40.044Z,101370.06
2022-10-28T15:02:31.422Z,101367.09
2022-10-28T15:04:34.180Z,101378.78
2022-10-28T15:06:40.758Z,101388.28
2022-10-28T15:08:43.145Z,101390.63
2022-10-28T15:10:49.327Z,101382.37
2022-10-28T15:12:54.537Z,101388.47
2022-10-28T15:14:57.403Z,101390.53
2022-10-28T15:17:09.241Z,101392.13
2022-10-28T15:19:17.025Z,101377.50
2022-10-28T15:21:21.765Z,101369.84
2022-10-28T15:23:24.314Z,101366.38
2022-10-28T15:25:27.574Z,101361.97
2022-10-28T15:27:32.219Z,101355.03
2022-10-28T15:29:35.043Z,101354.53
2022-10-28T15:32:26.571Z,101343.66
2022-10-28T15:34:29.538Z,101343.47
2022-10-28T15:36:32.104Z,101361.25
2022-10-28T15:38:39.336Z,101363.75
2022-10-28T15:40:41.588Z,101361.75
2022-10-28T15:43:02.509Z,101357.06
2022-10-28T15:45:05.908Z,101353.41
2022-10-28T15:47:33.401Z,101344.69
2022-10-28T15:49:40.653Z,101350.56
2022-10-28T15:51:42.865Z,101360.25
2022-10-28T15:53:46.714Z,101354.03
2022-10-28T15:56:20.713Z,101363.72
2022-10-28T15:58:33.269Z,101366.13
2022-10-28T16:00:50.212Z,101383.78
2022-10-28T16:02:57.146Z,101388.44
2022-10-28T16:04:59.624Z,101414.66
2022-10-28T16:07:08.309Z,101413.19
2022-10-28T16:09:18.948Z,101432.56
2022-10-28T16:11:21.206Z,101437.66
2022-10-28T16:13:35.098Z,101447.41
2022-10-28T16:15:48.310Z,101450.97
2022-10-28T16:17:50.495Z,101442.00
2022-10-28T16:19:52.683Z,101432.19
2022-10-28T16:21:56.021Z,101440.06
2022-10-28T16:23:59.163Z,101445.09
2022-10-28T16:26:01.355Z,101449.00
2022-10-28T16:28:05.731Z,101443.37
2022-10-28T16:30:08.639Z,101442.66
2022-10-28T16:32:12.814Z,101434.34
2022-10-28T16:34:15.356Z,101430.19
2022-10-28T16:36:17.605Z,101429.91
2022-10-28T16:38:20.049Z,101421.09
2022-10-28T16:40:50.974Z,101417.81
2022-10-28T16:42:46.588Z,101421.47
2022-10-28T16:44:49.390Z,101426.28
2022-10-28T16:46:51.996Z,101419.47
2022-10-28T16:48:54.550Z,101421.03
2022-10-28T16:51:00.521Z,101416.06
2022-10-28T16:53:03.003Z,101412.00
2022-10-28T16:55:13.315Z,101414.44
2022-10-28T16:57:16.567Z,101421.38
2022-10-28T16:59:19.395Z,101422.09
2022-10-28T17:01:22.839Z,101430.25
2022-10-28T17:03:25.248Z,101419.28
2022-10-28T17:05:28.435Z,101407.91
2022-10-28T17:07:31.344Z,101397.16
2022-10-28T17:09:33.595Z,101405.88
2022-10-28T17:11:36.067Z,101419.75
2022-10-28T17:13:38.311Z,101424.75
2022-10-28T17:15:41.955Z,101426.56
2022-10-28T17:17:45.010Z,101417.44
2022-10-28T17:19:47.328Z,101402.81
2022-10-28T17:21:49.538Z,101407.56
2022-10-28T17:23:52.043Z,101406.84
2022-10-28T17:25:59.467Z,101414.62
2022-10-28T17:28:04.747Z,101418.75
2022-10-28T17:30:08.268Z,101430.47
2022-10-28T17:32:10.924Z,101424.59
2022-10-28T17:34:13.731Z,101432.31
2022-10-28T17:36:16.605Z,101431.31
2022-10-28T17:38:19.208Z,101435.50
2022-10-28T17:40:22.222Z,101433.16
2022-10-28T17:42:24.884Z,101437.72
2022-10-28T17:44:27.219Z,101422.19
2022-10-28T17:46:29.870Z,101430.06
2022-10-28T17:48:32.760Z,101424.59
2022-10-28T17:50:34.994Z,101421.47
2022-10-28T17:52:38.601Z,101432.31
2022-10-28T17:54:41.405Z,101431.16
2022-10-28T17:56:43.732Z,101447.91
2022-10-28T17:58:46.140Z,101456.28
2022-10-28T18:00:48.609Z,101466.84
2022-10-28T18:02:55.949Z,101467.94
2022-10-28T18:04:58.324Z,101481.53
2022-10-28T18:07:00.596Z,101486.84
2022-10-28T18:09:03.909Z,101488.94
2022-10-28T18:11:07.786Z,101494.91
2022-10-28T18:13:10.270Z,101474.63
2022-10-28T18:15:13.137Z,101471.28
2022-10-28T18:17:17.315Z,101469.28
2022-10-28T18:19:20.102Z,101472.25
2022-10-28T18:21:24.417Z,101459.78
2022-10-28T18:23:27.233Z,101452.50
2022-10-28T18:25:30.016Z,101455.78
2022-10-28T18:27:33.131Z,101443.37
2022-10-28T18:29:36.309Z,101447.63
2022-10-28T18:31:40.982Z,101451.25
2022-10-28T18:33:44.930Z,101449.19
2022-10-28T18:35:48.073Z,101444.22
2022-10-28T18:37:50.735Z,101429.09
2022-10-28T18:39:53.459Z,101424.09
2022-10-28T18:41:56.081Z,101417.06
2022-10-28T18:44:00.595Z,101416.91
2022-10-28T18:46:03.375Z,101422.22
2022-10-28T18:48:06.827Z,101425.25
2022-10-28T18:50:09.393Z,101421.28
2022-10-28T18:52:12.135Z,101422.53
2022-10-28T18:54:15.109Z,101428.84
2022-10-28T18:56:23.648Z,101422.22
2022-10-28T18:58:27.362Z,101424.84
2022-10-28T19:00:29.919Z,101429.44
2022-10-28T19:02:32.344Z,101426.97
2022-10-28T19:04:35.011Z,101431.19
2022-10-28T19:06:40.276Z,101444.50
2022-10-28T19:08:44.177Z,101444.31
2022-10-28T19:10:48.617Z,101449.81
2022-10-28T19:12:53.169Z,101447.50
2022-10-28T19:14:55.730Z,101458.72
2022-10-28T19:16:58.712Z,101459.50
2022-10-28T19:19:05.589Z,101463.72
2022-10-28T19:21:11.990Z,101460.37
2022-10-28T19:23:14.866Z,101458.41
2022-10-28T19:25:17.297Z,101451.94
2022-10-28T19:27:19.632Z,101451.19
2022-10-28T19:29:22.107Z,101450.53
2022-10-28T19:31:26.406Z,101458.84
2022-10-28T19:33:31.184Z,101463.44
2022-10-28T19:35:34.491Z,101463.81
2022-10-28T19:37:36.818Z,101463.81
2022-10-28T19:39:39.132Z,101457.63
2022-10-28T19:41:41.778Z,101457.63
2022-10-28T19:43:45.005Z,101462.56
2022-10-28T19:45:47.297Z,101466.19
2022-10-28T19:47:50.668Z,101469.19
2022-10-28T19:49:54.388Z,101471.44
2022-10-28T19:51:56.718Z,101473.63
2022-10-28T19:54:01.282Z,101470.78
2022-10-28T19:56:04.354Z,101465.28
2022-10-28T19:58:07.094Z,101470.66
2022-10-28T20:00:10.394Z,101476.97
2022-10-28T20:02:13.910Z,101485.50
2022-10-28T20:04:17.509Z,101482.66
2022-10-28T20:06:22.042Z,101481.00
2022-10-28T20:08:24.325Z,101492.06
2022-10-28T20:10:26.985Z,101497.53
2022-10-28T20:12:29.448Z,101501.66
2022-10-28T20:14:32.638Z,101512.38
2022-10-28T20:16:36.349Z,101533.47
2022-10-28T20:18:39.498Z,101534.28
2022-10-28T20:20:41.769Z,101535.91
2022-10-28T20:22:44.622Z,101532.75
2022-10-28T20:24:46.927Z,101526.25
2022-10-28T20:26:49.189Z,101529.47
2022-10-28T20:28:51.750Z,101528.25
2022-10-28T20:31:01.638Z,101521.97
2022-10-28T20:33:04.168Z,101517.63
2022-10-28T20:35:07.115Z,101519.62
2022-10-28T20:37:09.364Z,101510.50
2022-10-28T20:39:16.887Z,101507.87
2022-10-28T20:41:19.731Z,101500.88
2022-10-28T20:43:23.886Z,101497.47
2022-10-28T20:45:26.067Z,101491.91
2022-10-28T20:47:28.626Z,101497.72
2022-10-28T20:49:30.867Z,101504.78
2022-10-28T20:51:33.511Z,101511.63
2022-10-28T20:53:36.634Z,101526.28
2022-10-28T20:55:45.257Z,101534.59
2022-10-28T20:57:47.436Z,101504.94
2022-10-28T20:59:51.651Z,101500.34
2022-10-28T21:01:53.924Z,101487.50
2022-10-28T21:03:58.527Z,101471.75
2022-10-28T21:06:04.160Z,101473.28
2022-10-28T21:08:06.703Z,101468.31
2022-10-28T21:10:09.774Z,101470.13
2022-10-28T21:12:12.399Z,101463.81
2022-10-28T21:14:14.960Z,101454.19
2022-10-28T21:16:17.598Z,101442.75
2022-10-28T21:18:20.071Z,101435.06
2022-10-28T21:20:22.546Z,101435.28
2022-10-28T21:22:24.789Z,101431.19
2022-10-28T21:24:27.272Z,101428.25
2022-10-28T21:26:29.462Z,101420.25
2022-10-28T21:28:33.110Z,101429.00
2022-10-28T21:30:35.518Z,101423.16
2022-10-28T21:32:37.809Z,101435.03
2022-10-28T21:34:40.152Z,101439.84
2022-10-28T21:36:42.674Z,101434.03
2022-10-28T21:38:45.472Z,101430.75
2022-10-28T21:40:47.722Z,101423.59
2022-10-28T21:42:50.453Z,101423.03
2022-10-28T21:44:52.993Z,101435.00
2022-10-28T21:46:55.430Z,101437.09
2022-10-28T21:48:58.180Z,101435.53
2022-10-28T21:51:02.446Z,101431.25
2022-10-28T21:53:04.632Z,101431.69
2022-10-28T21:55:20.052Z,101425.38
2022-10-28T21:57:30.207Z,101421.25
2022-10-28T21:59:33.311Z,101418.44
2022-10-28T22:01:37.081Z,101419.25
2022-10-28T22:03:39.628Z,101417.25
2022-10-28T22:05:49.956Z,101417.13
2022-10-28T22:07:52.208Z,101413.13
2022-10-28T22:09:54.700Z,101415.94
2022-10-28T22:11:56.919Z,101417.72
2022-10-28T22:14:01.659Z,101412.25
2022-10-28T22:16:10.893Z,101410.69
2022-10-28T22:18:13.061Z,101412.69
2022-10-28T22:20:15.745Z,101405.19
2022-10-28T22:22:18.274Z,101410.94
2022-10-28T22:24:20.456Z,101414.81
2022-10-28T22:26:28.613Z,101427.69
2022-10-28T22:28:31.646Z,101447.13
2022-10-28T22:30:33.829Z,101454.13
2022-10-28T22:32:36.026Z,101466.53
2022-10-28T22:34:38.493Z,101463.00
2022-10-28T22:36:43.222Z,101468.09
2022-10-28T22:38:46.235Z,101468.16
2022-10-28T22:40:48.963Z,101471.97
2022-10-28T22:42:51.163Z,101474.59
2022-10-28T22:44:53.334Z,101449.88
2022-10-28T22:46:55.925Z,101449.19
2022-10-28T22:48:58.192Z,101449.22
2022-10-28T22:51:00.710Z,101437.41
